Terminal Aerodrome Forecast
Issued by NWS

Home | Current Version | Previous Version | Text Only | Print | Product List | Glossary On
Versions: 1 2 3 4 5 6 7 8 9 10 11 12 13 14 15 16 17 18 19 20
000
FTAK31 PANC 302341
TAFACD
TAF
PACD 302341Z 3100/3124 14015KT P6SM VCSH OVC010
     FM310300 14020G32KT 5SM -RA BR BKN010 OVC020
     FM310600 13025G35KT 2SM -RA BR BKN010
     FM311000 22025G40KT 6SM -SHRA OVC010
     FM311800 23035G45KT P6SM -SHRA BKN015 OVC025=

USA.gov is the U.S. government's official web portal to all federal, state and local government web resources and services.